createdAt,value
2023-03-24T00:00:55.667Z,12.60
2023-03-24T00:01:55.662Z,12.62
2023-03-24T00:02:55.688Z,12.58
2023-03-24T00:03:55.809Z,12.58
2023-03-24T00:04:55.643Z,12.58
2023-03-24T00:05:55.611Z,12.57
2023-03-24T00:06:55.601Z,12.57
2023-03-24T00:07:55.593Z,12.60
2023-03-24T00:08:55.621Z,12.57
2023-03-24T00:09:55.586Z,12.60
2023-03-24T00:10:55.681Z,12.58
2023-03-24T00:11:55.593Z,12.58
2023-03-24T00:12:55.536Z,12.61
2023-03-24T00:13:55.522Z,12.64
2023-03-24T00:14:55.524Z,12.68
2023-03-24T00:16:05.056Z,12.70
2023-03-24T00:16:55.488Z,12.62
2023-03-24T00:17:55.520Z,12.64
2023-03-24T00:18:55.464Z,12.68
2023-03-24T00:19:55.490Z,12.75
2023-03-24T00:20:55.464Z,12.61
2023-03-24T00:21:55.435Z,12.67
2023-03-24T00:22:55.433Z,12.65
2023-03-24T00:23:55.505Z,12.70
2023-03-24T00:24:55.403Z,12.61
2023-03-24T00:25:55.410Z,12.55
2023-03-24T00:26:55.380Z,12.67
2023-03-24T00:27:55.369Z,12.49
2023-03-24T00:28:55.372Z,12.57
2023-03-24T00:29:55.347Z,12.58
2023-03-24T00:30:55.386Z,12.57
2023-03-24T00:31:55.325Z,12.55
2023-03-24T00:32:55.336Z,12.60
2023-03-24T00:33:55.331Z,12.58
2023-03-24T00:34:55.295Z,12.50
2023-03-24T00:35:55.313Z,12.49
2023-03-24T00:36:55.310Z,12.57
2023-03-24T00:37:55.275Z,12.53
2023-03-24T00:38:55.246Z,12.40
2023-03-24T00:39:55.237Z,12.60
2023-03-24T00:40:55.251Z,12.49
2023-03-24T00:41:55.225Z,12.53
2023-03-24T00:42:55.212Z,12.45
2023-03-24T00:43:55.203Z,12.49
2023-03-24T00:44:55.188Z,12.47
2023-03-24T00:45:55.228Z,12.47
2023-03-24T00:46:55.183Z,12.49
2023-03-24T00:47:55.167Z,12.47
2023-03-24T00:48:55.149Z,12.49
2023-03-24T00:49:55.137Z,12.45
2023-03-24T00:50:55.124Z,12.46
2023-03-24T00:51:55.112Z,12.47
2023-03-24T00:52:55.142Z,12.47
2023-03-24T00:53:55.093Z,12.42
2023-03-24T00:54:55.100Z,12.50
2023-03-24T00:55:55.099Z,12.49
2023-03-24T00:56:55.108Z,12.46
2023-03-24T00:57:55.074Z,12.55
2023-03-24T00:58:55.062Z,12.55
2023-03-24T00:59:55.024Z,12.54
2023-03-24T01:00:55.101Z,12.64
2023-03-24T01:01:55.050Z,12.57
2023-03-24T01:02:55.032Z,12.57
2023-03-24T01:03:54.977Z,12.50
2023-03-24T01:04:54.993Z,12.43
2023-03-24T01:05:54.962Z,12.55
2023-03-24T01:06:54.946Z,12.49
2023-03-24T01:07:54.936Z,12.42
2023-03-24T01:08:55.085Z,12.57
2023-03-24T01:09:54.925Z,12.42
2023-03-24T01:10:54.919Z,12.49
2023-03-24T01:11:54.898Z,12.49
2023-03-24T01:12:54.885Z,12.57
2023-03-24T01:13:54.888Z,12.57
2023-03-24T01:14:54.868Z,12.47
2023-03-24T01:15:54.878Z,12.47
2023-03-24T01:16:54.837Z,12.47
2023-03-24T01:17:54.898Z,12.39
2023-03-24T01:18:54.812Z,12.40
2023-03-24T01:19:54.819Z,12.50
2023-03-24T01:20:54.797Z,12.46
2023-03-24T01:21:54.787Z,12.46
2023-03-24T01:22:54.768Z,12.43
2023-03-24T01:23:54.776Z,12.49
2023-03-24T01:24:54.879Z,12.50
2023-03-24T01:25:54.745Z,12.46
2023-03-24T01:26:54.720Z,12.53
2023-03-24T01:27:54.717Z,12.57
2023-03-24T01:28:54.702Z,12.45
2023-03-24T01:29:54.721Z,12.53
2023-03-24T01:30:54.693Z,12.58
2023-03-24T01:31:54.716Z,12.60
2023-03-24T01:32:54.689Z,12.57
2023-03-24T01:33:54.652Z,12.54
2023-03-24T01:34:54.642Z,12.46
2023-03-24T01:35:54.679Z,12.58
2023-03-24T01:36:54.615Z,12.60
2023-03-24T01:37:54.610Z,12.58
2023-03-24T01:38:54.596Z,12.61
2023-03-24T01:39:54.592Z,12.61
2023-03-24T01:40:54.589Z,12.62
2023-03-24T01:41:54.586Z,12.58
2023-03-24T01:42:54.550Z,12.50
2023-03-24T01:43:54.537Z,12.60
2023-03-24T01:44:54.530Z,12.64
2023-03-24T01:45:54.564Z,12.60
2023-03-24T01:46:54.523Z,12.57
2023-03-24T01:47:54.556Z,12.47
2023-03-24T01:48:54.488Z,12.54
2023-03-24T01:49:54.476Z,12.47
2023-03-24T01:50:54.464Z,12.46
2023-03-24T01:51:54.478Z,12.53
2023-03-24T01:52:54.442Z,12.58
2023-03-24T01:53:54.432Z,12.54
2023-03-24T01:54:54.430Z,12.47
2023-03-24T01:55:54.420Z,12.50
2023-03-24T01:56:54.444Z,12.49
2023-03-24T01:57:54.414Z,12.46
2023-03-24T01:58:54.379Z,12.47
2023-03-24T01:59:54.366Z,12.49
2023-03-24T02:00:54.393Z,12.54
2023-03-24T02:01:54.352Z,12.55
2023-03-24T02:02:54.384Z,12.43
2023-03-24T02:03:54.333Z,12.62
2023-03-24T02:04:54.341Z,12.46
2023-03-24T02:05:54.307Z,12.43
2023-03-24T02:06:54.292Z,12.47
2023-03-24T02:07:54.293Z,12.49
2023-03-24T02:08:54.272Z,12.43
2023-03-24T02:09:54.259Z,12.57
2023-03-24T02:10:54.247Z,12.57
2023-03-24T02:11:54.253Z,12.40
2023-03-24T02:12:54.260Z,12.53
2023-03-24T02:13:54.228Z,12.60
2023-03-24T02:14:54.202Z,12.54
2023-03-24T02:15:54.251Z,12.53
2023-03-24T02:16:54.184Z,12.54
2023-03-24T02:17:54.315Z,12.62
2023-03-24T02:18:54.164Z,12.60
2023-03-24T02:19:54.160Z,12.54
2023-03-24T02:20:54.143Z,12.57
2023-03-24T02:21:54.132Z,12.58
2023-03-24T02:22:54.128Z,12.53
2023-03-24T02:23:54.142Z,12.58
2023-03-24T02:24:54.098Z,12.58
2023-03-24T02:25:54.089Z,12.50
2023-03-24T02:26:54.074Z,12.54
2023-03-24T02:27:54.069Z,12.49
2023-03-24T02:28:54.093Z,12.60
2023-03-24T02:29:54.103Z,12.58
2023-03-24T02:30:54.030Z,12.55
2023-03-24T02:31:54.052Z,12.50
2023-03-24T02:32:54.162Z,12.43
2023-03-24T02:33:53.998Z,12.49
2023-03-24T02:34:54.000Z,12.57
2023-03-24T02:35:53.989Z,12.49
2023-03-24T02:36:53.965Z,12.47
2023-03-24T02:37:53.964Z,12.62
2023-03-24T02:38:53.945Z,12.49
2023-03-24T02:39:53.962Z,12.50
2023-03-24T02:40:53.937Z,12.54
2023-03-24T02:41:53.922Z,12.55
2023-03-24T02:42:53.916Z,12.57
2023-03-24T02:43:53.902Z,12.55
2023-03-24T02:44:53.900Z,12.58
2023-03-24T02:45:53.907Z,12.55
2023-03-24T02:46:53.852Z,12.58
2023-03-24T02:47:53.900Z,12.54
2023-03-24T02:48:53.838Z,12.61
2023-03-24T02:49:53.825Z,12.60
2023-03-24T02:50:53.819Z,12.60
2023-03-24T02:51:53.814Z,12.58
2023-03-24T02:52:53.793Z,12.61
2023-03-24T02:53:53.790Z,12.50
2023-03-24T02:54:53.763Z,12.47
2023-03-24T02:55:53.750Z,12.50
2023-03-24T02:56:53.817Z,12.43
2023-03-24T02:57:53.737Z,12.43
2023-03-24T02:58:53.742Z,12.45
2023-03-24T02:59:53.718Z,12.46
2023-03-24T03:00:53.724Z,12.45
2023-03-24T03:01:53.789Z,12.37
2023-03-24T03:02:53.703Z,12.37
2023-03-24T03:03:53.729Z,12.29
2023-03-24T03:04:53.675Z,12.32
2023-03-24T03:05:53.645Z,12.21
2023-03-24T03:06:53.632Z,12.22
2023-03-24T03:07:53.622Z,12.27
2023-03-24T03:08:53.612Z,12.29
2023-03-24T03:09:53.623Z,12.24
2023-03-24T03:10:53.591Z,12.22
2023-03-24T03:11:53.597Z,12.25
2023-03-24T03:12:53.572Z,12.25
2023-03-24T03:13:53.602Z,12.28
2023-03-24T03:14:53.545Z,12.21
2023-03-24T03:15:53.562Z,12.28
2023-03-24T03:16:53.646Z,12.27
2023-03-24T03:17:53.532Z,12.29
2023-03-24T03:18:53.500Z,12.31
2023-03-24T03:19:53.504Z,12.35
2023-03-24T03:20:53.502Z,12.29
2023-03-24T03:21:53.470Z,12.32
2023-03-24T03:22:53.491Z,12.36
2023-03-24T03:23:53.448Z,12.37
2023-03-24T03:24:53.461Z,12.32
2023-03-24T03:25:53.437Z,12.31
2023-03-24T03:26:53.419Z,12.36
2023-03-24T03:27:53.407Z,12.32
2023-03-24T03:28:53.397Z,12.37
2023-03-24T03:29:53.395Z,12.36
2023-03-24T03:30:53.432Z,12.29
2023-03-24T03:31:53.364Z,12.27
2023-03-24T03:32:53.468Z,12.32
2023-03-24T03:33:53.346Z,12.42
2023-03-24T03:34:53.354Z,12.39
2023-03-24T03:35:53.379Z,12.35
2023-03-24T03:36:53.316Z,12.37
2023-03-24T03:37:53.323Z,12.32
2023-03-24T03:38:53.291Z,12.32
2023-03-24T03:39:53.298Z,12.37
2023-03-24T03:40:53.278Z,12.36
2023-03-24T03:41:53.260Z,12.36
2023-03-24T03:42:53.302Z,12.29
2023-03-24T03:43:53.270Z,12.29
2023-03-24T03:44:53.230Z,12.24
2023-03-24T03:45:53.259Z,12.25
2023-03-24T03:46:53.215Z,12.29
2023-03-24T03:47:53.249Z,12.25
2023-03-24T03:48:53.205Z,12.29
2023-03-24T03:49:53.170Z,12.27
2023-03-24T03:50:59.893Z,12.25
2023-03-24T03:51:54.218Z,12.31
2023-03-24T03:52:53.143Z,12.28
2023-03-24T03:53:53.138Z,12.31
2023-03-24T03:54:53.126Z,12.28
2023-03-24T03:55:53.110Z,12.27
2023-03-24T03:56:53.118Z,12.21
2023-03-24T03:57:53.102Z,12.25
2023-03-24T03:58:53.070Z,12.27
2023-03-24T03:59:53.064Z,12.22
2023-03-24T04:00:53.054Z,12.20
2023-03-24T04:01:53.111Z,12.21
2023-03-24T04:02:53.239Z,12.29
2023-03-24T04:03:53.091Z,12.28
2023-03-24T04:05:03.216Z,12.29
2023-03-24T04:05:53.999Z,12.32
2023-03-24T04:06:52.985Z,12.27
2023-03-24T04:07:52.989Z,12.28
2023-03-24T04:08:52.983Z,12.31
2023-03-24T04:09:52.955Z,12.31
2023-03-24T04:10:52.943Z,12.29
2023-03-24T04:11:52.939Z,12.35
2023-03-24T04:12:52.922Z,12.40
2023-03-24T04:13:52.936Z,12.35
2023-03-24T04:14:52.899Z,12.32
2023-03-24T04:15:52.922Z,12.22
2023-03-24T04:16:52.875Z,12.29
2023-03-24T04:17:52.933Z,12.27
2023-03-24T04:18:52.873Z,12.32
2023-03-24T04:19:52.860Z,12.36
2023-03-24T04:20:52.870Z,12.24
2023-03-24T04:21:52.821Z,12.29
2023-03-24T04:22:52.817Z,12.37
2023-03-24T04:23:52.823Z,12.39
2023-03-24T04:24:52.789Z,12.37
2023-03-24T04:25:52.779Z,12.32
2023-03-24T04:26:52.772Z,12.35
2023-03-24T04:27:52.758Z,12.37
2023-03-24T04:28:52.746Z,12.39
2023-03-24T04:29:52.758Z,12.37
2023-03-24T04:30:52.732Z,12.46
2023-03-24T04:31:52.908Z,12.45
2023-03-24T04:32:52.742Z,12.46
2023-03-24T04:33:52.692Z,12.42
2023-03-24T04:34:52.690Z,12.43
2023-03-24T04:35:52.708Z,12.47
2023-03-24T04:36:52.676Z,12.40
2023-03-24T04:37:52.652Z,12.42
2023-03-24T04:38:52.646Z,12.45
2023-03-24T04:39:52.622Z,12.47
2023-03-24T04:40:52.637Z,12.50
2023-03-24T04:41:52.618Z,12.50
2023-03-24T04:42:52.729Z,12.49
2023-03-24T04:43:52.587Z,12.45
2023-03-24T04:44:52.568Z,12.53
2023-03-24T04:45:52.580Z,12.37
2023-03-24T04:46:52.569Z,12.53
2023-03-24T04:47:52.609Z,12.53
2023-03-24T04:48:52.533Z,12.50
2023-03-24T04:49:52.525Z,12.55
2023-03-24T04:50:52.497Z,12.50
2023-03-24T04:51:52.503Z,12.58
2023-03-24T04:52:52.514Z,12.58
2023-03-24T04:53:52.471Z,12.57
2023-03-24T04:54:52.459Z,12.55
2023-03-24T04:55:52.449Z,12.53
2023-03-24T04:56:52.510Z,12.60
2023-03-24T04:57:52.449Z,12.54
2023-03-24T04:58:52.420Z,12.50
2023-03-24T04:59:52.407Z,12.50
2023-03-24T05:00:52.419Z,12.57
2023-03-24T05:01:52.393Z,12.58
2023-03-24T05:02:52.429Z,12.55
2023-03-24T05:03:52.411Z,12.57
2023-03-24T05:04:52.341Z,12.57
2023-03-24T05:05:52.339Z,12.68
2023-03-24T05:06:52.337Z,12.67
2023-03-24T05:07:52.313Z,12.64
2023-03-24T05:08:52.350Z,12.73
2023-03-24T05:09:52.319Z,12.75
2023-03-24T05:10:52.280Z,12.72
2023-03-24T05:11:52.275Z,12.64
2023-03-24T05:12:52.265Z,12.75
2023-03-24T05:13:52.250Z,12.67
2023-03-24T05:14:52.262Z,12.76
2023-03-24T05:15:52.237Z,12.70
2023-03-24T05:16:52.319Z,12.76
2023-03-24T05:17:52.226Z,12.68
2023-03-24T05:18:52.200Z,12.82
2023-03-24T05:19:52.208Z,12.73
2023-03-24T05:20:52.167Z,12.75
2023-03-24T05:21:52.160Z,12.79
2023-03-24T05:22:52.158Z,12.76
2023-03-24T05:23:52.145Z,12.83
2023-03-24T05:24:52.168Z,12.80
2023-03-24T05:25:52.138Z,12.80
2023-03-24T05:26:52.100Z,12.83
2023-03-24T05:27:52.093Z,12.86
2023-03-24T05:28:52.094Z,12.87
2023-03-24T05:29:52.071Z,12.85
2023-03-24T05:30:52.097Z,12.93
2023-03-24T05:31:52.063Z,12.91
2023-03-24T05:32:52.093Z,12.91
2023-03-24T05:33:52.045Z,12.91
2023-03-24T05:34:52.021Z,12.94
2023-03-24T05:35:52.055Z,12.87
2023-03-24T05:36:51.999Z,12.94
2023-03-24T05:37:51.988Z,12.91
2023-03-24T05:38:52.002Z,12.90
2023-03-24T05:39:53.654Z,12.94
2023-03-24T05:40:51.976Z,12.93
2023-03-24T05:41:51.937Z,13.09
2023-03-24T05:42:51.975Z,13.04
2023-03-24T05:43:51.912Z,13.05
2023-03-24T05:44:51.928Z,13.08
2023-03-24T05:45:51.952Z,12.91
2023-03-24T05:46:51.884Z,13.09
2023-03-24T05:47:51.950Z,13.09
2023-03-24T05:48:51.867Z,13.03
2023-03-24T05:49:51.884Z,12.97
2023-03-24T05:50:51.837Z,13.05
2023-03-24T05:51:51.833Z,13.01
2023-03-24T05:52:51.826Z,13.03
2023-03-24T05:53:51.815Z,13.00
2023-03-24T05:54:51.799Z,13.00
2023-03-24T05:55:51.831Z,13.04
2023-03-24T05:56:51.853Z,13.09
2023-03-24T05:57:51.773Z,13.05
2023-03-24T05:58:51.780Z,12.94
2023-03-24T05:59:51.745Z,13.11
2023-03-24T06:00:51.787Z,13.01
2023-03-24T06:01:51.747Z,13.18
2023-03-24T06:02:51.797Z,13.08
2023-03-24T06:03:51.835Z,13.01
2023-03-24T06:04:51.719Z,13.05
2023-03-24T06:05:51.680Z,13.09
2023-03-24T06:06:51.670Z,13.11
2023-03-24T06:07:51.677Z,13.13
2023-03-24T06:08:51.645Z,13.13
2023-03-24T06:09:51.638Z,13.13
2023-03-24T06:10:51.621Z,13.11
2023-03-24T06:11:51.623Z,13.12
2023-03-24T06:12:51.637Z,13.13
2023-03-24T06:13:51.594Z,13.15
2023-03-24T06:14:51.578Z,13.13
2023-03-24T06:15:51.625Z,13.19
2023-03-24T06:16:51.562Z,13.12
2023-03-24T06:17:51.629Z,13.11
2023-03-24T06:18:51.535Z,13.15
2023-03-24T06:19:51.519Z,13.15
2023-03-24T06:20:51.519Z,13.22
2023-03-24T06:21:51.517Z,13.22
2023-03-24T06:22:51.505Z,13.30
2023-03-24T06:23:51.480Z,13.31
2023-03-24T06:24:51.492Z,13.28
2023-03-24T06:25:51.475Z,13.37
2023-03-24T06:26:51.445Z,13.35
2023-03-24T06:27:51.454Z,13.41
2023-03-24T06:28:51.442Z,13.44
2023-03-24T06:29:51.410Z,13.44
2023-03-24T06:30:51.442Z,13.42
2023-03-24T06:31:51.389Z,13.49
2023-03-24T06:32:51.440Z,13.47
2023-03-24T06:33:51.388Z,13.46
2023-03-24T06:34:51.355Z,13.53
2023-03-24T06:35:51.387Z,13.47
2023-03-24T06:36:51.341Z,13.53
2023-03-24T06:37:51.328Z,13.52
2023-03-24T06:38:51.378Z,13.57
2023-03-24T06:39:51.313Z,13.56
2023-03-24T06:40:51.317Z,13.57
2023-03-24T06:41:51.277Z,13.54
2023-03-24T06:42:51.265Z,13.59
2023-03-24T06:43:51.269Z,13.57
2023-03-24T06:44:51.279Z,13.56
2023-03-24T06:45:51.253Z,13.53
2023-03-24T06:46:51.238Z,13.60
2023-03-24T06:47:51.270Z,13.70
2023-03-24T06:48:51.203Z,13.59
2023-03-24T06:49:51.205Z,13.68
2023-03-24T06:50:51.186Z,13.65
2023-03-24T06:51:51.194Z,13.62
2023-03-24T06:52:51.153Z,13.71
2023-03-24T06:53:51.143Z,13.72
2023-03-24T06:54:51.143Z,13.68
2023-03-24T06:55:51.135Z,13.72
2023-03-24T06:56:51.141Z,13.72
2023-03-24T06:57:51.130Z,13.78
2023-03-24T06:58:51.094Z,13.78
2023-03-24T06:59:51.085Z,13.75
2023-03-24T07:00:51.093Z,13.87
2023-03-24T07:01:51.165Z,13.85
2023-03-24T07:02:51.156Z,13.79
2023-03-24T07:03:51.151Z,13.83
2023-03-24T07:04:51.023Z,13.85
2023-03-24T07:05:51.017Z,13.78
2023-03-24T07:07:06.495Z,13.75
2023-03-24T07:08:27.946Z,13.79
2023-03-24T07:08:52.022Z,13.77
2023-03-24T07:09:51.252Z,13.86
2023-03-24T07:10:50.977Z,13.83
2023-03-24T07:11:50.944Z,13.87
2023-03-24T07:12:50.976Z,13.85
2023-03-24T07:13:50.970Z,13.89
2023-03-24T07:14:50.926Z,13.95
2023-03-24T07:15:50.958Z,13.92
2023-03-24T07:16:50.991Z,13.90
2023-03-24T07:17:50.934Z,13.81
2023-03-24T07:18:50.872Z,13.96
2023-03-24T07:19:50.874Z,13.97
2023-03-24T07:20:50.864Z,14.03
2023-03-24T07:21:50.824Z,14.04
2023-03-24T07:22:50.834Z,13.96
2023-03-24T07:23:50.814Z,14.08
2023-03-24T07:24:52.816Z,14.04
2023-03-24T07:25:50.814Z,14.11
2023-03-24T07:26:50.775Z,14.11
2023-03-24T07:27:50.771Z,14.17
2023-03-24T07:28:50.779Z,14.15
2023-03-24T07:29:50.745Z,14.23
2023-03-24T07:30:52.137Z,14.30
2023-03-24T07:31:50.800Z,14.40
2023-03-24T07:32:50.782Z,14.58
2023-03-24T07:33:50.718Z,14.59
2023-03-24T07:34:50.691Z,14.68
2023-03-24T07:35:50.694Z,14.69
2023-03-24T07:36:50.680Z,14.69
2023-03-24T07:37:50.663Z,14.81
2023-03-24T07:38:50.679Z,14.78
2023-03-24T07:39:50.652Z,14.70
2023-03-24T07:40:50.645Z,14.63
2023-03-24T07:41:50.617Z,14.60
2023-03-24T07:42:50.621Z,14.55
2023-03-24T07:43:50.594Z,14.58
2023-03-24T07:44:50.576Z,14.65
2023-03-24T07:45:50.636Z,14.62
2023-03-24T07:46:50.561Z,14.54
2023-03-24T07:47:50.549Z,14.60
2023-03-24T07:48:50.604Z,14.62
2023-03-24T07:49:50.526Z,14.69
2023-03-24T07:50:50.560Z,14.59
2023-03-24T07:51:50.522Z,14.60
2023-03-24T07:52:50.506Z,14.53
2023-03-24T07:53:50.521Z,14.68
2023-03-24T07:54:50.469Z,14.58
2023-03-24T07:55:50.674Z,14.58
2023-03-24T07:56:50.491Z,14.50
2023-03-24T07:57:50.442Z,14.53
2023-03-24T07:58:50.457Z,14.54
2023-03-24T07:59:50.467Z,14.41
2023-03-24T08:00:50.769Z,14.50
2023-03-24T08:01:54.875Z,14.45
2023-03-24T08:02:50.587Z,14.45
2023-03-24T08:03:52.337Z,14.43
2023-03-24T08:04:50.380Z,14.32
2023-03-24T08:05:50.685Z,14.30
2023-03-24T08:06:50.365Z,14.28
2023-03-24T08:07:50.354Z,14.20
2023-03-24T08:08:50.317Z,14.20
2023-03-24T08:09:50.316Z,14.22
2023-03-24T08:10:50.308Z,14.18
2023-03-24T08:11:50.334Z,14.17
2023-03-24T08:12:50.288Z,14.15
2023-03-24T08:13:50.303Z,14.12
2023-03-24T08:14:50.266Z,14.12
2023-03-24T08:15:50.253Z,14.04
2023-03-24T08:16:50.248Z,14.00
2023-03-24T08:17:50.294Z,14.07
2023-03-24T08:18:50.231Z,14.00
2023-03-24T08:19:59.469Z,14.04
2023-03-24T08:20:51.261Z,14.08
2023-03-24T08:21:50.176Z,14.00
2023-03-24T08:22:50.288Z,13.97
2023-03-24T08:23:50.163Z,13.95
2023-03-24T08:24:50.144Z,13.92
2023-03-24T08:25:50.298Z,13.96
2023-03-24T08:26:50.132Z,13.93
2023-03-24T08:27:50.118Z,13.99
2023-03-24T08:28:50.103Z,13.93
2023-03-24T08:29:50.089Z,13.96
2023-03-24T08:30:50.519Z,13.93
2023-03-24T08:31:50.085Z,13.93
2023-03-24T08:32:50.224Z,13.99
2023-03-24T08:33:50.044Z,13.99
2023-03-24T08:34:50.034Z,13.97
2023-03-24T08:35:50.218Z,13.97
2023-03-24T08:36:50.062Z,13.96
2023-03-24T08:37:50.011Z,14.00
2023-03-24T08:38:50.024Z,14.03
2023-03-24T08:39:49.978Z,14.03
2023-03-24T08:40:49.978Z,14.08
2023-03-24T08:41:49.962Z,14.03
2023-03-24T08:42:49.981Z,14.04
2023-03-24T08:43:50.008Z,13.99
2023-03-24T08:44:49.920Z,14.05
2023-03-24T08:45:50.267Z,14.03
2023-03-24T08:46:49.943Z,14.05
2023-03-24T08:47:49.894Z,14.07
2023-03-24T08:48:49.890Z,13.99
2023-03-24T08:49:49.882Z,14.11
2023-03-24T08:50:49.860Z,14.04
2023-03-24T08:51:49.868Z,14.10
2023-03-24T08:52:49.844Z,14.08
2023-03-24T08:53:49.816Z,14.00
2023-03-24T08:54:49.819Z,14.05
2023-03-24T08:55:49.933Z,14.12
2023-03-24T08:56:49.861Z,14.12
2023-03-24T08:57:49.794Z,14.18
2023-03-24T08:58:49.777Z,14.20
2023-03-24T08:59:51.342Z,14.22
2023-03-24T09:00:49.738Z,14.20
2023-03-24T09:01:49.780Z,14.25
2023-03-24T09:02:49.772Z,14.28
2023-03-24T09:03:49.701Z,14.29
2023-03-24T09:04:49.739Z,14.35
2023-03-24T09:05:49.682Z,14.44
2023-03-24T09:06:49.686Z,14.36
2023-03-24T09:07:49.670Z,14.36
2023-03-24T09:08:49.690Z,14.41
2023-03-24T09:09:49.672Z,14.43
2023-03-24T09:10:49.630Z,14.45
2023-03-24T09:11:49.622Z,14.43
2023-03-24T09:12:49.666Z,14.41
2023-03-24T09:13:49.630Z,14.41
2023-03-24T09:14:49.589Z,14.47
2023-03-24T09:15:49.994Z,14.40
2023-03-24T09:16:49.570Z,14.37
2023-03-24T09:17:49.599Z,14.41
2023-03-24T09:18:49.555Z,14.44
2023-03-24T09:19:49.547Z,14.37
2023-03-24T09:20:49.892Z,14.41
2023-03-24T09:21:49.514Z,14.43
2023-03-24T09:22:49.566Z,14.40
2023-03-24T09:23:49.501Z,14.48
2023-03-24T09:24:49.564Z,14.44
2023-03-24T09:25:49.654Z,14.36
2023-03-24T09:26:49.475Z,14.44
2023-03-24T09:27:49.468Z,14.41
2023-03-24T09:28:49.448Z,14.50
2023-03-24T09:29:49.419Z,14.41
2023-03-24T09:30:49.714Z,14.43
2023-03-24T09:31:49.471Z,14.54
2023-03-24T09:32:49.422Z,14.55
2023-03-24T09:33:49.384Z,14.63
2023-03-24T09:34:49.360Z,14.60
2023-03-24T09:35:49.424Z,14.65
2023-03-24T09:36:49.337Z,14.69
2023-03-24T09:37:49.334Z,14.86
2023-03-24T09:38:49.317Z,15.25
2023-03-24T09:39:49.314Z,15.37
2023-03-24T09:40:49.533Z,15.75
2023-03-24T09:41:49.307Z,15.82
2023-03-24T09:42:49.275Z,16.04
2023-03-24T09:43:49.294Z,16.17
2023-03-24T09:44:50.553Z,16.12
2023-03-24T09:45:49.456Z,16.16
2023-03-24T09:46:49.275Z,16.38
2023-03-24T09:47:49.315Z,16.38
2023-03-24T09:48:49.233Z,16.26
2023-03-24T09:49:49.203Z,16.28
2023-03-24T09:50:49.227Z,16.15
2023-03-24T09:51:49.211Z,16.29
2023-03-24T09:52:49.184Z,16.39
2023-03-24T09:53:49.184Z,16.29
2023-03-24T09:54:49.152Z,16.32
2023-03-24T09:55:49.369Z,16.24
2023-03-24T09:56:51.291Z,16.26
2023-03-24T09:57:49.141Z,16.26
2023-03-24T09:58:49.100Z,16.51
2023-03-24T09:59:49.089Z,17.08
2023-03-24T10:00:49.285Z,17.12
2023-03-24T10:01:49.076Z,17.06
2023-03-24T10:02:51.172Z,17.01
2023-03-24T10:03:49.108Z,16.79
2023-03-24T10:04:49.047Z,16.65
2023-03-24T10:05:49.131Z,16.41
2023-03-24T10:06:49.026Z,16.36
2023-03-24T10:07:49.011Z,16.17
2023-03-24T10:08:49.039Z,16.16
2023-03-24T10:09:49.011Z,16.13
2023-03-24T10:10:49.059Z,16.17
2023-03-24T10:11:48.981Z,16.16
2023-03-24T10:12:48.981Z,16.16
2023-03-24T10:13:48.970Z,16.17
2023-03-24T10:14:48.946Z,16.16
2023-03-24T10:15:48.970Z,16.20
2023-03-24T10:16:48.985Z,16.17
2023-03-24T10:17:48.937Z,16.16
2023-03-24T10:18:48.877Z,16.10
2023-03-24T10:19:48.872Z,16.13
2023-03-24T10:20:48.867Z,16.15
2023-03-24T10:21:49.746Z,16.16
2023-03-24T10:22:48.847Z,16.17
2023-03-24T10:23:48.828Z,16.13
2023-03-24T10:24:48.838Z,16.15
2023-03-24T10:25:49.071Z,16.04
2023-03-24T10:26:49.689Z,15.98
2023-03-24T10:27:48.816Z,16.00
2023-03-24T10:28:50.359Z,16.04
2023-03-24T10:29:48.785Z,16.02
2023-03-24T10:30:49.483Z,16.04
2023-03-24T10:31:49.720Z,16.10
2023-03-24T10:32:48.842Z,16.16
2023-03-24T10:33:48.743Z,16.39
2023-03-24T10:34:48.756Z,16.57
2023-03-24T10:35:48.826Z,16.76
2023-03-24T10:36:52.071Z,16.99
2023-03-24T10:37:58.215Z,17.14
2023-03-24T10:38:48.702Z,17.22
2023-03-24T10:39:48.733Z,17.38
2023-03-24T10:40:48.664Z,17.59
2023-03-24T10:41:48.640Z,17.72
2023-03-24T10:43:07.183Z,17.89
2023-03-24T10:43:49.625Z,18.19
2023-03-24T10:44:48.650Z,18.23
2023-03-24T10:45:48.748Z,18.33
2023-03-24T10:46:48.605Z,18.22
2023-03-24T10:47:48.746Z,18.05
2023-03-24T10:48:48.640Z,18.00
2023-03-24T10:49:48.632Z,17.71
2023-03-24T10:50:48.586Z,17.59
2023-03-24T10:51:48.537Z,17.51
2023-03-24T10:52:49.355Z,17.49
2023-03-24T10:53:48.810Z,17.52
2023-03-24T10:54:48.538Z,17.42
2023-03-24T10:55:48.837Z,17.33
2023-03-24T10:56:48.529Z,17.23
2023-03-24T10:57:48.478Z,17.12
2023-03-24T10:58:48.465Z,17.14
2023-03-24T10:59:48.451Z,17.16
2023-03-24T11:00:48.548Z,17.14
2023-03-24T11:01:48.504Z,17.05
2023-03-24T11:02:48.448Z,17.14
2023-03-24T11:03:48.403Z,17.02
2023-03-24T11:04:48.387Z,16.94
2023-03-24T11:05:48.553Z,16.94
2023-03-24T11:06:48.385Z,17.08
2023-03-24T11:07:48.355Z,16.99
2023-03-24T11:08:48.338Z,17.02
2023-03-24T11:09:48.336Z,16.99
2023-03-24T11:10:48.340Z,16.97
2023-03-24T11:11:48.319Z,17.04
2023-03-24T11:12:48.299Z,16.96
2023-03-24T11:13:48.283Z,17.02
2023-03-24T11:14:48.270Z,17.08
2023-03-24T11:15:48.389Z,16.99
2023-03-24T11:16:48.322Z,17.05
2023-03-24T11:17:48.254Z,17.12
2023-03-24T11:18:48.246Z,17.27
2023-03-24T11:19:48.272Z,17.34
2023-03-24T11:20:48.236Z,17.52
2023-03-24T11:21:48.208Z,17.52
2023-03-24T11:22:48.202Z,17.79
2023-03-24T11:23:48.198Z,18.07
2023-03-24T11:24:48.204Z,18.18
2023-03-24T11:25:48.365Z,18.15
2023-03-24T11:26:48.244Z,18.18
2023-03-24T11:27:48.142Z,18.13
2023-03-24T11:28:48.134Z,18.03
2023-03-24T11:29:48.108Z,18.04
2023-03-24T11:30:48.148Z,18.04
2023-03-24T11:31:48.084Z,18.03
2023-03-24T11:32:48.134Z,17.98
2023-03-24T11:33:48.077Z,18.00
2023-03-24T11:34:48.289Z,17.87
2023-03-24T11:36:48.106Z,17.92
2023-03-24T11:37:48.025Z,17.95
2023-03-24T11:38:48.021Z,18.10
2023-03-24T11:39:48.003Z,18.04
2023-03-24T11:40:48.052Z,18.04
2023-03-24T11:41:47.975Z,18.04
2023-03-24T11:42:48.012Z,18.05
2023-03-24T11:43:47.950Z,18.05
2023-03-24T11:44:47.950Z,18.15
2023-03-24T11:45:48.196Z,18.13
2023-03-24T11:46:47.986Z,18.26
2023-03-24T11:47:47.958Z,18.20
2023-03-24T11:48:47.985Z,18.13
2023-03-24T11:49:47.892Z,18.11
2023-03-24T11:50:47.894Z,18.13
2023-03-24T11:51:47.881Z,18.22
2023-03-24T11:52:48.726Z,18.31
2023-03-24T11:53:47.961Z,18.23
2023-03-24T11:54:47.866Z,18.22
2023-03-24T11:55:48.061Z,18.19
2023-03-24T11:56:47.832Z,18.35
2023-03-24T11:57:47.816Z,18.33
2023-03-24T11:58:47.886Z,18.26
2023-03-24T11:59:47.874Z,18.33
2023-03-24T12:00:47.777Z,18.35
2023-03-24T12:01:47.830Z,18.28
2023-03-24T12:02:47.899Z,18.13
2023-03-24T12:03:47.933Z,18.19
2023-03-24T12:04:47.768Z,18.10
2023-03-24T12:05:50.385Z,17.92
2023-03-24T12:06:47.703Z,17.95
2023-03-24T12:07:47.707Z,17.94
2023-03-24T12:08:48.234Z,17.98
2023-03-24T12:09:47.739Z,18.03
2023-03-24T12:10:47.686Z,17.98
2023-03-24T12:11:47.679Z,17.82
2023-03-24T12:12:47.651Z,17.82
2023-03-24T12:13:47.682Z,17.85
2023-03-24T12:14:47.620Z,17.78
2023-03-24T12:15:47.857Z,17.82
2023-03-24T12:16:47.685Z,17.94
2023-03-24T12:17:47.616Z,18.01
2023-03-24T12:18:47.588Z,17.94
2023-03-24T12:19:47.582Z,17.98
2023-03-24T12:20:47.635Z,18.00
2023-03-24T12:21:48.465Z,17.94
2023-03-24T12:22:47.657Z,17.92
2023-03-24T12:23:47.569Z,17.80
2023-03-24T12:24:47.513Z,17.82
2023-03-24T12:25:47.754Z,17.76
2023-03-24T12:26:47.701Z,17.78
2023-03-24T12:27:47.524Z,17.80
2023-03-24T12:28:47.581Z,17.83
2023-03-24T12:29:47.453Z,17.85
2023-03-24T12:30:47.630Z,17.82
2023-03-24T12:31:47.510Z,17.83
2023-03-24T12:32:47.492Z,17.76
2023-03-24T12:33:47.591Z,17.82
2023-03-24T12:34:47.397Z,17.76
2023-03-24T12:35:47.675Z,17.78
2023-03-24T12:36:47.403Z,17.70
2023-03-24T12:37:47.386Z,17.56
2023-03-24T12:38:48.153Z,17.56
2023-03-24T12:39:47.340Z,17.48
2023-03-24T12:40:47.342Z,17.49
2023-03-24T12:41:47.345Z,17.52
2023-03-24T12:42:47.416Z,17.54
2023-03-24T12:43:47.301Z,17.41
2023-03-24T12:44:47.492Z,17.31
2023-03-24T12:45:48.908Z,17.26
2023-03-24T12:46:48.934Z,17.27
2023-03-24T12:47:47.307Z,17.26
2023-03-24T12:48:47.431Z,17.16
2023-03-24T12:49:47.233Z,17.20
2023-03-24T12:50:47.230Z,17.11
2023-03-24T12:51:47.206Z,17.26
2023-03-24T12:52:51.135Z,17.30
2023-03-24T12:53:48.233Z,17.29